River Vale, Indiana
Current Conditions -  °F | °C
As of 2:53 AM on Sunday 23 Nov 2014 (Local Time) from KBMG Reporting Station
Overcast Overcast  
Wind Chill: 51°   Ceiling: 7500
Heat Index: 51°   Visibility: 10mi
Dew Point: 39°   Wind: 9mph
Humidity: 63%   Direction: 150°SSE
Pressure: 29.96"   Gusts: NA
Location:  38.7366°N, 86.4546°W
Report Text: KBMG 230753Z 15008KT 10SM OVC075 11/04 A2996 RMK AO2 SLP145 T01060039
Loading
Personal Weather Stations






























Interactive Weather Map New forecast layout! Learn more

10-Day Weather Forecast

Advertisements
Track Severe Weather on mobile